St Lawrence Post Office, Australia
Current Conditions -  °F | °C
As of 7:00 PM on Sunday 21 Dec 2014 (Local Time) from YBMK Reporting Station
Scattered Clouds Scattered Clouds  
Wind Chill: 81°   Ceiling: Unl
Heat Index: 84°   Visibility: 6mi
Dew Point: 70°   Wind: 13mph
Humidity: 70%   Direction: 100°E
Pressure: 29.91"   Gusts: NA
Location:  22.33°S, 149.53°E
Report Text: YBMK 210900Z AUTO 10011KT 9999 // SCT029 27/21 Q1013
Loading
Personal Weather Stations






























Interactive Weather Map New forecast layout! Learn more

10-Day Weather Forecast

Advertisements
Track Severe Weather on mobile